National Weather Service United States Department of Commerce

Airport Observations and Forecasts (from NWS CLE)

Cleveland Hopkins International Airport

 

FAA details


294
FTUS41 KCLE 241741
TAFCLE
TAF
KCLE 241741Z 2418/2524 10010KT P6SM OVC040
TEMPO 2418/2422 5SM -SHRA OVC025
FM242200 10012KT P6SM VCSH OVC025
FM250000 10012G20KT 4SM -SHRA OVC015
FM250300 10010KT 4SM -SHRA BR OVC008
FM250800 14008KT P6SM OVC008
FM251400 19006KT P6SM VCSH OVC015
FM251900 26006KT P6SM -SHRA OVC015=

24 hours of observations

7-day forecast

Hourly - Tabular forecast  Hourly - Graph forecast

Terminal Information Board

Toledo Express Airport

 

FAA details


584
FTUS41 KCLE 241741
TAFTOL
TAF
KTOL 241741Z 2418/2518 05010KT P6SM OVC035
TEMPO 2418/2419 3SM -TSRA OVC025CB
FM242100 05012KT 6SM -SHRA OVC025
FM250200 05012KT 3SM -SHRA BR OVC008
FM250900 VRB05KT 5SM BR VCSH OVC004
FM251500 30007KT P6SM VCSH OVC008=

24 hours of observations

7-day forecast

Hourly - Tabular forecast  Hourly - Graph forecast

Terminal Information Board

Findlay Airport

 

FAA details


585
FTUS41 KCLE 241741
TAFFDY
TAF
KFDY 241741Z 2418/2518 10010KT P6SM BKN040 OVC070
TEMPO 2420/2422 3SM -TSRA OVC025CB
FM242300 07012KT 5SM -SHRA BR OVC015
FM250100 09010KT 3SM -SHRA OVC008
FM250700 15005KT 5SM BR VCSH OVC004
FM251500 25005KT P6SM VCSH OVC008
FM251700 27008KT P6SM OVC015=

24 hours of observations

7-day forecast

Hourly - Tabular forecast   Hourly - Graph forecast

Terminal Information Board

Mansfield Lahm Airport

 

FAA details


582
FTUS41 KCLE 241741
TAFMFD
TAF
KMFD 241741Z 2418/2518 09010KT P6SM -SHRA SCT009 OVC015
TEMPO 2418/2422 3SM -RA BR
FM242200 07010KT 4SM -SHRA BR OVC008
FM250300 12008KT 3SM -SHRA OVC004
FM250600 14007KT 4SM BR VCSH OVC004
FM251400 18007KT 6SM BR VCSH OVC008=

24 hours of observations

7-day forecast

Hourly - Tabular forecast   Hourly - Graph forecast

Terminal Information Board

Akron-Canton Airport

 

FAA details


583
FTUS41 KCLE 241741
TAFCAK
TAF
KCAK 241741Z 2418/2518 13008KT P6SM -SHRA SCT009 OVC015
TEMPO 2418/2422 4SM -RA BR
FM242200 11012KT 5SM -SHRA BR OVC015
FM250100 13012KT 3SM -SHRA OVC008
FM250700 15007KT 4SM BR VCSH OVC008
FM251400 20007KT 6SM BR VCSH OVC012=

24 hours of observations

7-day forecast

Hourly - Tabular forecast   Hourly - Graph forecast

Terminal Information Board

Youngstown-Warren Regional Airport

 

FAA details


581
FTUS41 KCLE 241741
TAFYNG
TAF
KYNG 241741Z 2418/2518 12010KT P6SM OVC035
TEMPO 2418/2422 5SM -SHRA OVC025
FM242200 12012KT 5SM -SHRA BR OVC015
FM250200 12012KT 3SM -SHRA OVC008
FM250900 12007KT 4SM BR VCSH OVC008
FM251400 18007KT 6SM BR VCSH OVC012=

24 hours of observations

7-day forecast

Hourly - Tabular forecast   Hourly - Graph forecast

Terminal Information Board

Erie International Airport

 

FAA details


393
FTUS41 KCLE 241741
TAFERI
TAF
KERI 241741Z 2418/2518 04006KT P6SM VCSH OVC070
FM250000 10012KT P6SM -SHRA OVC035
FM250600 12015G22KT 4SM -SHRA OVC025
FM251000 14012KT P6SM VCSH OVC015=

24 hours of observations

7-day forecast

Hourly - Tabular Forecast  Hourly - Graph forecast

Terminal Information Board

The National Weather Service is Cleveland is responsible for the Terminal Areodome Forecasts for seven area airports in northern Ohio and northwest Pennsylvania.  Routine issuance times are by 00Z, 06Z, 12Z, and 18Z with amendments, as needed.

Latest Surface Analysis

Additional Current Conditions

Satellite

Radar
 
 

 

Center Weather Service Unit, Oberlin/ZOB

CWA/MIS    

 

The National Weather Service Center Weather Service Unit in Oberlin is responsible for the airspace above northern Ohio and northwest Pennsylvania and ajoining areas.

 

Aviaiton Weather Center National, AWC

AIRMETS & SIGMETS

 

 

Climatology